createdAt,value
2018-10-04T00:01:22.179Z,9.58
2018-10-04T00:03:50.371Z,10.40
2018-10-04T00:06:18.565Z,10.63
2018-10-04T00:08:46.739Z,14.85
2018-10-04T00:11:14.928Z,12.45
2018-10-04T00:13:43.094Z,11.33
2018-10-04T00:16:11.273Z,12.07
2018-10-04T00:18:39.485Z,12.80
2018-10-04T00:21:07.723Z,6.78
2018-10-04T00:23:35.907Z,14.38
2018-10-04T00:26:04.116Z,14.68
2018-10-04T00:28:32.294Z,13.13
2018-10-04T00:31:00.630Z,13.80
2018-10-04T00:33:28.800Z,9.25
2018-10-04T00:35:56.975Z,10.90
2018-10-04T00:38:25.252Z,14.00
2018-10-04T00:40:53.410Z,13.20
2018-10-04T00:43:21.602Z,11.65
2018-10-04T00:45:49.864Z,10.98
2018-10-04T00:48:18.027Z,12.40
2018-10-04T00:50:46.199Z,9.18
2018-10-04T00:53:14.382Z,14.35
2018-10-04T00:55:42.561Z,19.73
2018-10-04T00:58:10.780Z,8.13
2018-10-04T01:00:38.948Z,14.38
2018-10-04T01:03:07.123Z,13.00
2018-10-04T01:05:35.376Z,10.15
2018-10-04T01:08:03.574Z,10.90
2018-10-04T01:10:31.779Z,12.03
2018-10-04T01:12:59.973Z,15.85
2018-10-04T01:15:28.126Z,15.25
2018-10-04T01:18:09.687Z,11.95
2018-10-04T01:20:42.243Z,13.72
2018-10-04T01:23:10.546Z,13.13
2018-10-04T01:25:38.703Z,13.03
2018-10-04T01:28:06.890Z,10.72
2018-10-04T01:30:35.063Z,7.72
2018-10-04T01:33:03.253Z,10.63
2018-10-04T01:35:31.419Z,7.55
2018-10-04T01:37:59.612Z,12.03
2018-10-04T01:40:27.824Z,15.03
2018-10-04T01:42:55.991Z,12.68
2018-10-04T01:45:24.147Z,9.20
2018-10-04T01:47:52.346Z,12.03
2018-10-04T01:50:20.503Z,15.32
2018-10-04T01:52:48.700Z,13.43
2018-10-04T01:55:16.897Z,11.48
2018-10-04T01:57:45.094Z,13.40
2018-10-04T02:00:13.274Z,9.98
2018-10-04T02:02:41.454Z,10.75
2018-10-04T02:05:09.628Z,8.60
2018-10-04T02:07:37.818Z,10.68
2018-10-04T02:10:06.407Z,7.80
2018-10-04T02:12:34.638Z,6.72
2018-10-04T02:15:02.822Z,10.23
2018-10-04T02:17:31.044Z,8.28
2018-10-04T02:19:59.222Z,13.50
2018-10-04T02:22:27.398Z,12.03
2018-10-04T02:24:55.579Z,11.43
2018-10-04T02:27:23.780Z,16.02
2018-10-04T02:29:52.028Z,11.20
2018-10-04T02:32:20.250Z,13.68
2018-10-04T02:34:48.426Z,10.70
2018-10-04T02:37:16.602Z,13.45
2018-10-04T02:39:44.774Z,13.38
2018-10-04T02:42:12.946Z,14.68
2018-10-04T02:44:41.129Z,13.93
2018-10-04T02:47:09.302Z,11.25
2018-10-04T02:49:37.466Z,12.88
2018-10-04T02:52:06.049Z,14.15
2018-10-04T02:54:34.243Z,16.50
2018-10-04T02:57:02.464Z,12.98
2018-10-04T02:59:30.672Z,17.73
2018-10-04T03:01:58.862Z,10.85
2018-10-04T03:04:27.063Z,13.30
2018-10-04T03:06:55.283Z,10.72
2018-10-04T03:09:23.575Z,11.88
2018-10-04T03:11:51.803Z,12.75
2018-10-04T03:14:19.985Z,10.90
2018-10-04T03:16:48.158Z,14.47
2018-10-04T03:19:16.491Z,16.00
2018-10-04T03:21:44.658Z,16.30
2018-10-04T03:24:12.822Z,9.68
2018-10-04T03:26:41.018Z,11.40
2018-10-04T03:29:09.514Z,10.45
2018-10-04T03:31:37.680Z,8.30
2018-10-04T03:34:05.854Z,13.75
2018-10-04T03:36:34.022Z,14.30
2018-10-04T03:39:02.182Z,15.23
2018-10-04T03:41:30.330Z,10.10
2018-10-04T03:43:58.502Z,11.30
2018-10-04T03:46:26.666Z,20.32
2018-10-04T03:48:54.854Z,15.63
2018-10-04T03:51:23.075Z,11.55
2018-10-04T03:53:51.263Z,14.23
2018-10-04T03:56:19.456Z,14.58
2018-10-04T03:58:47.643Z,9.40
2018-10-04T04:01:15.803Z,13.18
2018-10-04T04:03:44.217Z,12.03
2018-10-04T04:06:12.400Z,13.15
2018-10-04T04:08:40.579Z,16.55
2018-10-04T04:11:08.734Z,13.93
2018-10-04T04:13:36.931Z,13.78
2018-10-04T04:16:05.182Z,13.28
2018-10-04T04:18:33.360Z,14.18
2018-10-04T04:21:01.508Z,15.95
2018-10-04T04:23:29.683Z,13.72
2018-10-04T04:25:57.874Z,16.55
2018-10-04T04:28:26.059Z,13.65
2018-10-04T04:30:54.300Z,12.93
2018-10-04T04:33:22.450Z,12.93
2018-10-04T04:35:50.616Z,17.25
2018-10-04T04:38:18.766Z,14.75
2018-10-04T04:40:47.051Z,10.93
2018-10-04T04:43:15.253Z,16.57
2018-10-04T04:45:43.416Z,14.00
2018-10-04T04:48:11.571Z,17.45
2018-10-04T04:50:39.731Z,13.23
2018-10-04T04:53:19.582Z,7.92
2018-10-04T04:55:47.760Z,10.88
2018-10-04T04:58:16.739Z,12.00
2018-10-04T05:00:46.051Z,8.30
2018-10-04T05:03:14.200Z,14.07
2018-10-04T05:05:42.394Z,14.90
2018-10-04T05:08:10.983Z,7.80
2018-10-04T05:10:39.466Z,16.35
2018-10-04T05:13:08.658Z,17.73
2018-10-04T05:15:36.827Z,15.95
2018-10-04T05:18:05.119Z,17.12
2018-10-04T05:20:33.356Z,19.60
2018-10-04T05:23:01.525Z,20.55
2018-10-04T05:25:29.934Z,15.15
2018-10-04T05:27:58.196Z,18.05
2018-10-04T05:30:26.283Z,17.82
2018-10-04T05:32:54.444Z,19.75
2018-10-04T05:35:22.647Z,15.93
2018-10-04T05:37:50.890Z,14.85
2018-10-04T05:40:19.086Z,17.82
2018-10-04T05:42:47.294Z,17.35
2018-10-04T05:45:15.543Z,16.40
2018-10-04T05:47:43.702Z,12.45
2018-10-04T05:50:11.874Z,17.87
2018-10-04T05:52:40.047Z,13.90
2018-10-04T05:55:08.222Z,14.20
2018-10-04T05:57:43.354Z,17.25
2018-10-04T06:00:25.124Z,18.40
2018-10-04T06:02:53.785Z,15.90
2018-10-04T06:05:22.028Z,22.20
2018-10-04T06:07:50.159Z,14.87
2018-10-04T06:10:18.359Z,13.18
2018-10-04T06:12:46.539Z,19.52
2018-10-04T06:15:16.227Z,10.72
2018-10-04T06:17:47.112Z,17.48
2018-10-04T06:20:15.597Z,13.60
2018-10-04T06:22:43.794Z,14.87
2018-10-04T06:25:11.986Z,15.30
2018-10-04T06:27:40.292Z,16.12
2018-10-04T06:30:09.027Z,20.43
2018-10-04T06:32:37.231Z,18.02
2018-10-04T06:35:05.413Z,17.35
2018-10-04T06:37:33.862Z,21.23
2018-10-04T06:40:02.088Z,16.05
2018-10-04T06:42:30.183Z,15.95
2018-10-04T06:44:58.391Z,18.70
2018-10-04T06:47:26.585Z,12.73
2018-10-04T06:49:54.783Z,17.50
2018-10-04T06:52:23.035Z,17.27
2018-10-04T06:54:51.187Z,15.48
2018-10-04T06:57:19.343Z,16.62
2018-10-04T06:59:47.554Z,12.18
2018-10-04T07:02:15.989Z,15.63
2018-10-04T07:04:44.177Z,11.55
2018-10-04T07:07:12.375Z,14.50
2018-10-04T07:09:41.611Z,15.10
2018-10-04T07:12:09.821Z,18.02
2018-10-04T07:14:38.039Z,14.30
2018-10-04T07:17:06.367Z,14.45
2018-10-04T07:19:34.576Z,17.65
2018-10-04T07:22:02.767Z,15.20
2018-10-04T07:24:30.943Z,13.38
2018-10-04T07:26:59.126Z,14.85
2018-10-04T07:29:27.352Z,12.63
2018-10-04T07:31:55.544Z,12.88
2018-10-04T07:34:23.766Z,15.55
2018-10-04T07:36:51.986Z,12.70
2018-10-04T07:39:20.208Z,11.45
2018-10-04T07:41:48.396Z,15.45
2018-10-04T07:44:16.612Z,15.38
2018-10-04T07:46:44.950Z,13.03
2018-10-04T07:49:13.194Z,13.18
2018-10-04T07:51:41.522Z,11.43
2018-10-04T07:54:09.759Z,17.62
2018-10-04T07:56:38.183Z,16.93
2018-10-04T07:59:06.371Z,14.35
2018-10-04T08:01:34.598Z,10.08
2018-10-04T08:04:02.822Z,10.85
2018-10-04T08:06:31.345Z,12.75
2018-10-04T08:08:59.243Z,11.80
2018-10-04T08:11:27.513Z,15.10
2018-10-04T08:13:55.687Z,18.10
2018-10-04T08:16:23.846Z,13.65
2018-10-04T08:18:52.036Z,13.75
2018-10-04T08:21:20.215Z,9.13
2018-10-04T08:23:48.443Z,11.93
2018-10-04T08:26:16.668Z,11.68
2018-10-04T08:28:45.855Z,12.10
2018-10-04T08:31:14.021Z,10.35
2018-10-04T08:33:42.229Z,10.15
2018-10-04T08:36:10.831Z,13.35
2018-10-04T08:38:39.028Z,11.03
2018-10-04T08:41:07.202Z,15.25
2018-10-04T08:43:35.372Z,13.40
2018-10-04T08:46:03.607Z,12.23
2018-10-04T08:48:31.830Z,14.83
2018-10-04T08:51:00.031Z,14.63
2018-10-04T08:53:28.274Z,14.05
2018-10-04T08:55:56.454Z,21.27
2018-10-04T08:58:24.647Z,12.82
2018-10-04T09:00:53.012Z,13.03
2018-10-04T09:03:21.172Z,9.95
2018-10-04T09:05:49.322Z,15.20
2018-10-04T09:08:17.651Z,12.30
2018-10-04T09:10:45.839Z,13.43
2018-10-04T09:13:14.006Z,13.00
2018-10-04T09:15:42.315Z,13.90
2018-10-04T09:18:10.486Z,14.33
2018-10-04T09:20:38.650Z,13.58
2018-10-04T09:23:06.914Z,13.20
2018-10-04T09:25:35.177Z,13.30
2018-10-04T09:28:03.591Z,11.75
2018-10-04T09:30:37.267Z,11.95
2018-10-04T09:33:05.459Z,16.60
2018-10-04T09:35:33.674Z,14.50
2018-10-04T09:38:01.878Z,13.70
2018-10-04T09:40:30.075Z,17.02
2018-10-04T09:42:58.261Z,11.40
2018-10-04T09:45:26.476Z,13.80
2018-10-04T09:47:56.117Z,16.75
2018-10-04T09:50:28.702Z,16.20
2018-10-04T09:52:57.889Z,14.70
2018-10-04T09:55:26.099Z,12.65
2018-10-04T09:57:54.359Z,11.70
2018-10-04T10:00:28.050Z,9.65
2018-10-04T10:03:04.284Z,13.48
2018-10-04T10:05:33.899Z,9.58
2018-10-04T10:08:02.066Z,9.40
2018-10-04T10:10:30.249Z,12.10
2018-10-04T10:13:00.609Z,12.28
2018-10-04T10:15:29.060Z,15.03
2018-10-04T10:17:57.727Z,14.35
2018-10-04T10:20:26.548Z,15.53
2018-10-04T10:22:54.745Z,10.58
2018-10-04T10:25:22.899Z,11.18
2018-10-04T10:27:51.111Z,11.45
2018-10-04T10:30:19.311Z,12.63
2018-10-04T10:32:47.473Z,11.85
2018-10-04T10:35:16.122Z,10.18
2018-10-04T10:37:44.454Z,11.45
2018-10-04T10:40:12.864Z,14.63
2018-10-04T10:42:41.054Z,14.90
2018-10-04T10:45:09.243Z,14.13
2018-10-04T10:47:37.486Z,10.30
2018-10-04T10:50:05.724Z,12.15
2018-10-04T10:52:33.961Z,12.63
2018-10-04T10:55:02.151Z,9.70
2018-10-04T10:57:32.611Z,14.18
2018-10-04T11:00:00.967Z,9.55
2018-10-04T11:02:29.698Z,12.07
2018-10-04T11:04:57.915Z,7.03
2018-10-04T11:07:26.153Z,13.08
2018-10-04T11:09:54.568Z,13.43
2018-10-04T11:12:22.915Z,13.90
2018-10-04T11:14:52.530Z,14.53
2018-10-04T11:17:20.945Z,12.43
2018-10-04T11:19:49.235Z,11.10
2018-10-04T11:22:17.979Z,11.00
2018-10-04T11:24:46.406Z,11.40
2018-10-04T11:27:16.234Z,12.05
2018-10-04T11:29:45.082Z,11.88
2018-10-04T11:32:13.375Z,16.25
2018-10-04T11:34:41.631Z,17.57
2018-10-04T11:37:09.865Z,11.97
2018-10-04T11:39:38.074Z,13.70
2018-10-04T11:42:06.421Z,11.48
2018-10-04T11:44:39.406Z,14.25
2018-10-04T11:47:11.341Z,11.95
2018-10-04T11:49:39.765Z,16.52
2018-10-04T11:52:07.973Z,7.28
2018-10-04T11:54:36.247Z,9.73
2018-10-04T11:57:04.469Z,10.13
2018-10-04T11:59:32.676Z,11.38
2018-10-04T12:02:00.946Z,12.60
2018-10-04T12:04:29.135Z,8.48
2018-10-04T12:06:57.371Z,14.78
2018-10-04T12:09:25.513Z,8.65
2018-10-04T12:11:53.674Z,9.28
2018-10-04T12:14:21.850Z,10.13
2018-10-04T12:16:50.023Z,10.58
2018-10-04T12:19:18.318Z,10.50
2018-10-04T12:21:46.655Z,7.90
2018-10-04T12:24:14.864Z,8.08
2018-10-04T12:26:43.067Z,10.30
2018-10-04T12:29:11.243Z,10.63
2018-10-04T12:31:39.437Z,10.00
2018-10-04T12:34:07.664Z,7.45
2018-10-04T12:36:35.865Z,10.70
2018-10-04T12:39:05.777Z,10.03
2018-10-04T12:41:34.055Z,6.25
2018-10-04T12:44:03.989Z,6.75
2018-10-04T12:46:32.199Z,9.85
2018-10-04T12:49:00.423Z,7.72
2018-10-04T12:51:28.676Z,6.78
2018-10-04T12:53:56.818Z,8.15
2018-10-04T12:56:24.995Z,6.45
2018-10-04T12:58:53.371Z,8.03
2018-10-04T13:01:21.575Z,14.10
2018-10-04T13:03:49.732Z,8.78
2018-10-04T13:06:18.007Z,6.53
2018-10-04T13:08:46.142Z,9.10
2018-10-04T13:11:14.335Z,11.00
2018-10-04T13:13:42.823Z,6.17
2018-10-04T13:16:10.984Z,7.00
2018-10-04T13:18:39.191Z,7.22
2018-10-04T13:21:07.593Z,10.15
2018-10-04T13:23:35.611Z,5.78
2018-10-04T13:26:03.785Z,7.37
2018-10-04T13:28:31.962Z,5.70
2018-10-04T13:31:00.131Z,4.72
2018-10-04T13:33:28.360Z,6.28
2018-10-04T13:35:56.503Z,5.78
2018-10-04T13:38:24.766Z,4.30
2018-10-04T13:40:52.990Z,9.25
2018-10-04T13:43:21.087Z,7.30
2018-10-04T13:45:49.546Z,11.83
2018-10-04T13:48:17.713Z,6.58
2018-10-04T13:50:45.880Z,6.33
2018-10-04T13:53:14.047Z,6.55
2018-10-04T13:55:42.214Z,8.13
2018-10-04T13:58:10.366Z,6.92
2018-10-04T14:00:38.550Z,7.40
2018-10-04T14:03:06.707Z,4.85
2018-10-04T14:05:34.884Z,6.53
2018-10-04T14:08:03.044Z,6.15
2018-10-04T14:10:31.210Z,7.05
2018-10-04T14:12:59.687Z,6.17
2018-10-04T14:15:28.048Z,8.28
2018-10-04T14:17:56.165Z,5.78
2018-10-04T14:20:24.379Z,6.78
2018-10-04T14:22:52.537Z,4.75
2018-10-04T14:25:20.702Z,7.53
2018-10-04T14:27:48.872Z,8.18
2018-10-04T14:30:17.039Z,8.65
2018-10-04T14:32:45.222Z,4.37
2018-10-04T14:35:13.351Z,4.97
2018-10-04T14:37:41.574Z,5.70
2018-10-04T14:40:09.734Z,4.40
2018-10-04T14:42:37.899Z,7.47
2018-10-04T14:45:06.053Z,6.85
2018-10-04T14:47:34.258Z,8.13
2018-10-04T14:50:02.486Z,2.87
2018-10-04T14:52:30.710Z,9.18
2018-10-04T14:54:59.922Z,4.28
2018-10-04T14:57:28.099Z,3.60
2018-10-04T14:59:56.332Z,4.87
2018-10-04T15:02:24.582Z,6.80
2018-10-04T15:04:52.744Z,7.70
2018-10-04T15:07:21.016Z,4.85
2018-10-04T15:09:49.223Z,5.10
2018-10-04T15:12:17.427Z,5.47
2018-10-04T15:14:45.775Z,6.45
2018-10-04T15:17:14.062Z,6.75
2018-10-04T15:19:42.175Z,7.92
2018-10-04T15:22:10.376Z,5.00
2018-10-04T15:24:38.542Z,6.33
2018-10-04T15:27:06.752Z,6.08
2018-10-04T15:29:34.954Z,8.30
2018-10-04T15:32:03.170Z,5.40
2018-10-04T15:34:31.379Z,5.03
2018-10-04T15:36:59.543Z,3.17
2018-10-04T15:39:27.715Z,6.80
2018-10-04T15:41:55.934Z,3.27
2018-10-04T15:44:24.094Z,2.92
2018-10-04T15:46:52.299Z,4.70
2018-10-04T15:49:20.470Z,5.47
2018-10-04T15:51:48.648Z,4.92
2018-10-04T15:54:16.851Z,7.05
2018-10-04T15:56:45.030Z,5.78
2018-10-04T15:59:13.237Z,5.20
2018-10-04T16:01:41.518Z,6.83
2018-10-04T16:04:09.776Z,8.33
2018-10-04T16:06:38.045Z,9.10
2018-10-04T16:09:08.233Z,4.42
2018-10-04T16:11:37.029Z,8.50
2018-10-04T16:14:05.460Z,4.50
2018-10-04T16:16:33.768Z,7.55
2018-10-04T16:19:02.297Z,6.35
2018-10-04T16:21:31.057Z,5.95
2018-10-04T16:23:59.401Z,8.13
2018-10-04T16:26:27.957Z,4.83
2018-10-04T16:28:57.452Z,5.28
2018-10-04T16:31:26.655Z,3.95
2018-10-04T16:33:54.935Z,4.85
2018-10-04T16:36:23.224Z,4.78
2018-10-04T16:38:51.430Z,5.00
2018-10-04T16:41:19.632Z,4.08
2018-10-04T16:43:47.807Z,4.42
2018-10-04T16:46:16.050Z,6.40
2018-10-04T16:48:44.346Z,5.15
2018-10-04T16:51:12.442Z,7.08
2018-10-04T16:53:40.628Z,7.40
2018-10-04T16:56:18.295Z,5.75
2018-10-04T16:58:46.507Z,6.70
2018-10-04T17:01:14.947Z,6.72
2018-10-04T17:03:43.638Z,6.03
2018-10-04T17:06:12.075Z,5.47
2018-10-04T17:08:40.475Z,5.15
2018-10-04T17:11:08.772Z,5.25
2018-10-04T17:13:37.178Z,5.55
2018-10-04T17:16:05.492Z,5.67
2018-10-04T17:18:33.809Z,4.55
2018-10-04T17:21:02.189Z,4.97
2018-10-04T17:23:30.616Z,3.17
2018-10-04T17:25:59.216Z,7.20
2018-10-04T17:28:27.785Z,5.75
2018-10-04T17:30:56.300Z,2.80
2018-10-04T17:33:27.222Z,5.25
2018-10-04T17:35:57.378Z,6.75
2018-10-04T17:38:29.491Z,6.08
2018-10-04T17:41:01.401Z,6.85
2018-10-04T17:43:32.387Z,5.90
2018-10-04T17:46:06.027Z,8.73
2018-10-04T17:48:34.255Z,7.67
2018-10-04T17:51:02.608Z,10.15
2018-10-04T17:53:30.864Z,6.30
2018-10-04T17:55:59.229Z,5.37
2018-10-04T17:58:27.700Z,6.75
2018-10-04T18:00:56.015Z,9.53
2018-10-04T18:03:25.378Z,9.50
2018-10-04T18:05:53.823Z,10.70
2018-10-04T18:08:23.501Z,7.30
2018-10-04T18:10:52.078Z,4.53
2018-10-04T18:13:20.560Z,8.33
2018-10-04T18:15:49.317Z,8.40
2018-10-04T18:18:17.903Z,9.18
2018-10-04T18:20:46.306Z,7.92
2018-10-04T18:23:14.817Z,5.15
2018-10-04T18:25:43.324Z,10.43
2018-10-04T18:28:11.823Z,8.50
2018-10-04T18:30:40.395Z,9.15
2018-10-04T18:33:08.722Z,10.40
2018-10-04T18:35:37.121Z,8.13
2018-10-04T18:38:06.123Z,6.28
2018-10-04T18:40:34.548Z,6.25
2018-10-04T18:43:02.982Z,6.40
2018-10-04T18:45:31.368Z,9.03
2018-10-04T18:47:59.708Z,8.73
2018-10-04T18:50:28.121Z,12.25
2018-10-04T18:52:56.635Z,8.13
2018-10-04T18:55:24.946Z,10.50
2018-10-04T18:57:53.348Z,8.38
2018-10-04T19:00:21.809Z,7.83
2018-10-04T19:02:50.164Z,8.60
2018-10-04T19:05:18.568Z,12.90
2018-10-04T19:07:46.839Z,10.78
2018-10-04T19:10:15.131Z,9.55
2018-10-04T19:12:43.758Z,10.23
2018-10-04T19:15:12.077Z,13.35
2018-10-04T19:17:40.644Z,10.78
2018-10-04T19:20:09.600Z,11.00
2018-10-04T19:22:37.969Z,16.93
2018-10-04T19:25:06.443Z,11.63
2018-10-04T19:27:34.839Z,13.38
2018-10-04T19:30:04.367Z,11.25
2018-10-04T19:32:32.968Z,9.35
2018-10-04T19:35:01.261Z,14.65
2018-10-04T19:37:29.698Z,12.30
2018-10-04T19:39:57.929Z,14.10
2018-10-04T19:42:26.165Z,11.50
2018-10-04T19:44:54.411Z,12.20
2018-10-04T19:47:22.651Z,12.93
2018-10-04T19:49:50.848Z,14.83
2018-10-04T19:52:19.060Z,12.40
2018-10-04T19:54:47.265Z,12.70
2018-10-04T19:57:15.456Z,13.83
2018-10-04T19:59:43.631Z,15.63
2018-10-04T20:02:11.968Z,15.13
2018-10-04T20:04:40.165Z,15.13
2018-10-04T20:07:08.486Z,12.65
2018-10-04T20:09:36.709Z,16.25
2018-10-04T20:12:04.867Z,12.70
2018-10-04T20:14:33.065Z,11.95
2018-10-04T20:17:01.423Z,12.28
2018-10-04T20:19:29.737Z,15.03
2018-10-04T20:21:58.270Z,13.22
2018-10-04T20:24:26.656Z,13.85
2018-10-04T20:26:55.144Z,10.05
2018-10-04T20:29:23.557Z,9.83
2018-10-04T20:31:52.044Z,11.75
2018-10-04T20:34:20.646Z,10.48
2018-10-04T20:36:49.292Z,13.93
2018-10-04T20:39:17.941Z,11.97
2018-10-04T20:41:46.889Z,13.45
2018-10-04T20:44:15.718Z,15.00
2018-10-04T20:46:44.327Z,13.05
2018-10-04T20:49:12.854Z,11.63
2018-10-04T20:51:41.354Z,11.22
2018-10-04T20:54:09.990Z,9.60
2018-10-04T20:56:38.611Z,11.78
2018-10-04T20:59:07.837Z,10.45
2018-10-04T21:01:37.254Z,9.60
2018-10-04T21:04:06.268Z,10.80
2018-10-04T21:06:34.950Z,8.38
2018-10-04T21:09:03.824Z,11.78
2018-10-04T21:11:32.548Z,13.30
2018-10-04T21:14:01.333Z,12.58
2018-10-04T21:16:29.973Z,15.65
2018-10-04T21:18:58.952Z,11.68
2018-10-04T21:21:27.591Z,11.78
2018-10-04T21:23:56.247Z,12.37
2018-10-04T21:26:24.769Z,11.05
2018-10-04T21:28:53.607Z,10.32
2018-10-04T21:31:22.244Z,11.57
2018-10-04T21:33:50.935Z,8.50
2018-10-04T21:36:19.653Z,9.63
2018-10-04T21:38:48.418Z,10.80
2018-10-04T21:41:16.920Z,13.65
2018-10-04T21:43:45.504Z,11.35
2018-10-04T21:46:14.196Z,13.68
2018-10-04T21:48:42.900Z,13.68
2018-10-04T21:51:11.660Z,10.15
2018-10-04T21:53:40.408Z,11.25
2018-10-04T21:56:08.986Z,10.38
2018-10-04T21:58:37.599Z,12.03
2018-10-04T22:01:06.519Z,13.48
2018-10-04T22:03:35.302Z,11.35
2018-10-04T22:06:04.058Z,10.72
2018-10-04T22:08:33.057Z,14.70
2018-10-04T22:11:02.639Z,10.43
2018-10-04T22:13:31.287Z,8.75
2018-10-04T22:16:00.027Z,11.78
2018-10-04T22:18:28.633Z,12.05
2018-10-04T22:20:57.452Z,13.22
2018-10-04T22:23:26.060Z,9.18
2018-10-04T22:25:54.919Z,11.88
2018-10-04T22:28:23.768Z,7.75
2018-10-04T22:30:52.384Z,11.80
2018-10-04T22:33:21.088Z,8.88
2018-10-04T22:35:49.659Z,11.05
2018-10-04T22:38:18.571Z,12.28
2018-10-04T22:40:47.316Z,10.25
2018-10-04T22:43:16.024Z,11.33
2018-10-04T22:45:45.287Z,8.63
2018-10-04T22:48:13.953Z,13.15
2018-10-04T22:50:42.596Z,13.85
2018-10-04T22:53:11.174Z,12.80
2018-10-04T22:55:39.712Z,12.75
2018-10-04T22:58:09.022Z,7.97
2018-10-04T23:00:37.926Z,9.13
2018-10-04T23:03:06.867Z,12.93
2018-10-04T23:05:35.488Z,7.85
2018-10-04T23:08:04.095Z,11.78
2018-10-04T23:10:32.556Z,8.43
2018-10-04T23:13:01.139Z,9.50
2018-10-04T23:15:29.640Z,8.15
2018-10-04T23:17:58.367Z,9.28
2018-10-04T23:20:27.086Z,7.97
2018-10-04T23:22:55.907Z,10.45
2018-10-04T23:25:24.605Z,8.45
2018-10-04T23:27:53.291Z,13.05
2018-10-04T23:30:21.857Z,9.55
2018-10-04T23:32:51.782Z,8.83
2018-10-04T23:35:20.477Z,10.38
2018-10-04T23:37:49.307Z,8.88
2018-10-04T23:40:18.046Z,7.33
2018-10-04T23:42:46.689Z,10.38
2018-10-04T23:45:15.688Z,7.87
2018-10-04T23:47:44.464Z,8.85
2018-10-04T23:50:13.351Z,7.08
2018-10-04T23:52:41.951Z,10.68
2018-10-04T23:55:10.919Z,8.93
2018-10-04T23:57:39.683Z,15.18
